createdAt,value
2023-03-29T00:00:09.863Z,2.38
2023-03-29T00:03:04.888Z,2.28
2023-03-29T00:05:36.460Z,1.88
2023-03-29T00:08:04.381Z,2.10
2023-03-29T00:10:34.833Z,2.22
2023-03-29T00:13:03.301Z,2.45
2023-03-29T00:15:30.793Z,2.10
2023-03-29T00:17:58.329Z,2.30
2023-03-29T00:20:25.972Z,2.30
2023-03-29T00:22:53.295Z,2.60
2023-03-29T00:25:20.469Z,2.20
2023-03-29T00:27:47.892Z,2.20
2023-03-29T00:30:15.994Z,2.42
2023-03-29T00:32:43.793Z,2.63
2023-03-29T00:35:11.004Z,2.40
2023-03-29T00:37:38.366Z,2.58
2023-03-29T00:40:09.786Z,2.30
2023-03-29T00:42:38.013Z,2.15
2023-03-29T00:45:09.868Z,2.17
2023-03-29T00:47:46.884Z,2.30
2023-03-29T00:50:29.630Z,2.35
2023-03-29T00:53:23.847Z,2.55
2023-03-29T00:56:14.129Z,2.50
2023-03-29T00:58:56.154Z,2.63
2023-03-29T01:01:42.221Z,2.67
2023-03-29T01:04:42.734Z,2.60
2023-03-29T01:07:22.882Z,2.60
2023-03-29T01:10:12.063Z,2.42
2023-03-29T01:12:53.876Z,2.10
2023-03-29T01:15:27.136Z,2.45
2023-03-29T01:17:58.414Z,1.92
2023-03-29T01:20:50.989Z,2.28
2023-03-29T01:23:51.234Z,2.00
2023-03-29T01:26:52.814Z,2.20
2023-03-29T01:29:43.188Z,2.25
2023-03-29T01:32:26.934Z,2.38
2023-03-29T01:35:10.137Z,1.85
2023-03-29T01:37:56.685Z,2.30
2023-03-29T01:40:28.077Z,2.13
2023-03-29T01:43:17.500Z,2.33
2023-03-29T01:46:27.199Z,2.15
2023-03-29T01:49:05.470Z,2.38
2023-03-29T01:51:40.695Z,2.40
2023-03-29T01:54:21.446Z,2.20
2023-03-29T01:56:52.171Z,2.00
2023-03-29T01:59:28.834Z,1.90
2023-03-29T02:02:03.299Z,2.10
2023-03-29T02:04:48.058Z,2.17
2023-03-29T02:07:44.423Z,2.00
2023-03-29T02:10:14.579Z,2.05
2023-03-29T02:12:42.585Z,2.15
2023-03-29T02:15:21.492Z,1.88
2023-03-29T02:17:50.929Z,2.08
2023-03-29T02:20:40.688Z,2.42
2023-03-29T02:23:24.569Z,2.22
2023-03-29T02:25:54.685Z,2.40
2023-03-29T02:28:24.692Z,2.40
2023-03-29T02:31:27.868Z,2.10
2023-03-29T02:34:22.837Z,2.75
2023-03-29T02:37:06.791Z,2.70
2023-03-29T02:39:36.002Z,2.50
2023-03-29T02:42:06.237Z,2.42
2023-03-29T02:44:40.701Z,3.13
2023-03-29T02:47:35.624Z,2.45
2023-03-29T02:50:06.622Z,2.40
2023-03-29T02:52:47.184Z,2.45
2023-03-29T02:55:18.908Z,2.60
2023-03-29T02:57:46.240Z,2.50
2023-03-29T03:00:15.049Z,2.33
2023-03-29T03:02:42.910Z,2.20
2023-03-29T03:05:11.422Z,2.47
2023-03-29T03:07:40.604Z,2.17
2023-03-29T03:10:11.123Z,2.80
2023-03-29T03:12:38.998Z,2.55
2023-03-29T03:15:07.872Z,2.45
2023-03-29T03:17:40.164Z,3.00
2023-03-29T03:20:13.295Z,2.53
2023-03-29T03:22:48.927Z,2.60
2023-03-29T03:25:21.056Z,2.92
2023-03-29T03:27:51.372Z,2.95
2023-03-29T03:30:22.303Z,2.50
2023-03-29T03:33:12.669Z,3.30
2023-03-29T03:36:02.906Z,2.90
2023-03-29T03:38:33.453Z,2.53
2023-03-29T03:41:02.305Z,2.88
2023-03-29T03:43:34.700Z,3.10
2023-03-29T03:46:02.625Z,2.55
2023-03-29T03:48:31.579Z,2.72
2023-03-29T03:51:16.899Z,2.60
2023-03-29T03:53:44.604Z,3.00
2023-03-29T03:56:16.261Z,2.88
2023-03-29T03:59:19.263Z,2.55
2023-03-29T04:02:01.379Z,3.08
2023-03-29T04:04:29.419Z,2.97
2023-03-29T04:07:04.705Z,2.53
2023-03-29T04:09:56.830Z,3.00
2023-03-29T04:12:50.158Z,2.90
2023-03-29T04:15:17.933Z,2.95
2023-03-29T04:17:52.149Z,3.00
2023-03-29T04:20:30.476Z,2.90
2023-03-29T04:22:59.440Z,2.60
2023-03-29T04:25:28.015Z,2.72
2023-03-29T04:28:14.407Z,3.53
2023-03-29T04:30:50.699Z,3.05
2023-03-29T04:33:41.175Z,3.30
2023-03-29T04:36:09.459Z,3.30
2023-03-29T04:38:37.896Z,3.03
2023-03-29T04:41:05.560Z,2.95
2023-03-29T04:44:02.555Z,3.03
2023-03-29T04:46:32.417Z,2.97
2023-03-29T04:49:12.640Z,2.95
2023-03-29T04:51:43.503Z,3.40
2023-03-29T04:54:11.780Z,3.22
2023-03-29T04:57:14.609Z,3.30
2023-03-29T05:00:15.109Z,3.10
2023-03-29T05:03:15.212Z,3.33
2023-03-29T05:05:55.248Z,3.40
2023-03-29T05:08:22.470Z,3.10
2023-03-29T05:11:11.601Z,3.10
2023-03-29T05:13:42.630Z,4.22
2023-03-29T05:16:11.103Z,4.03
2023-03-29T05:18:39.573Z,3.85
2023-03-29T05:21:07.618Z,3.65
2023-03-29T05:23:36.749Z,4.20
2023-03-29T05:26:24.408Z,3.72
2023-03-29T05:28:54.465Z,3.60
2023-03-29T05:31:23.724Z,3.70
2023-03-29T05:33:54.780Z,4.03
2023-03-29T05:36:25.478Z,4.40
2023-03-29T05:38:54.981Z,3.50
2023-03-29T05:41:24.774Z,3.90
2023-03-29T05:44:01.653Z,3.83
2023-03-29T05:46:30.493Z,3.95
2023-03-29T05:49:02.408Z,3.80
2023-03-29T05:51:56.895Z,3.90
2023-03-29T05:54:26.290Z,4.07
2023-03-29T05:56:53.567Z,3.75
2023-03-29T05:59:21.166Z,3.80
2023-03-29T06:01:48.674Z,4.07
2023-03-29T06:04:20.805Z,4.20
2023-03-29T06:07:05.614Z,4.93
2023-03-29T06:09:33.908Z,4.60
2023-03-29T06:12:04.247Z,4.57
2023-03-29T06:14:37.481Z,4.80
2023-03-29T06:17:19.011Z,4.43
2023-03-29T06:19:47.678Z,4.85
2023-03-29T06:22:16.165Z,4.28
2023-03-29T06:24:43.375Z,4.45
2023-03-29T06:27:21.767Z,4.55
2023-03-29T06:29:55.475Z,4.45
2023-03-29T06:32:23.294Z,4.10
2023-03-29T06:35:00.878Z,4.30
2023-03-29T06:37:33.801Z,4.75
2023-03-29T06:40:21.646Z,4.18
2023-03-29T06:42:49.289Z,3.95
2023-03-29T06:45:40.466Z,4.20
2023-03-29T06:48:17.266Z,4.35
2023-03-29T06:50:44.529Z,4.03
2023-03-29T06:53:15.764Z,4.00
2023-03-29T06:55:45.834Z,3.88
2023-03-29T06:58:45.241Z,3.50
2023-03-29T07:01:28.558Z,4.03
2023-03-29T07:04:08.195Z,3.75
2023-03-29T07:07:01.380Z,3.70
2023-03-29T07:09:33.405Z,3.40
2023-03-29T07:12:32.442Z,3.58
2023-03-29T07:15:01.677Z,2.75
2023-03-29T07:17:49.782Z,3.10
2023-03-29T07:20:17.729Z,3.28
2023-03-29T07:22:51.190Z,3.33
2023-03-29T07:25:38.646Z,2.40
2023-03-29T07:28:06.700Z,2.40
2023-03-29T07:30:35.280Z,2.65
2023-03-29T07:33:12.302Z,2.20
2023-03-29T07:35:47.875Z,2.80
2023-03-29T07:38:15.672Z,2.45
2023-03-29T07:40:48.280Z,2.00
2023-03-29T07:43:36.946Z,1.90
2023-03-29T07:46:06.714Z,2.30
2023-03-29T07:48:37.208Z,2.40
2023-03-29T07:51:07.881Z,3.10
2023-03-29T07:53:55.399Z,2.83
2023-03-29T07:56:47.693Z,2.30
2023-03-29T07:59:15.375Z,2.40
2023-03-29T08:01:45.031Z,2.42
2023-03-29T08:04:25.389Z,2.17
2023-03-29T08:07:19.362Z,1.90
2023-03-29T08:10:20.703Z,1.95
2023-03-29T08:12:58.605Z,2.00
2023-03-29T08:15:46.687Z,2.08
2023-03-29T08:18:27.953Z,2.10
2023-03-29T08:20:55.265Z,2.10
2023-03-29T08:23:22.725Z,1.77
2023-03-29T08:26:09.354Z,2.10
2023-03-29T08:28:38.645Z,1.75
2023-03-29T08:31:10.067Z,2.40
2023-03-29T08:33:41.032Z,1.55
2023-03-29T08:36:27.693Z,1.80
2023-03-29T08:38:58.198Z,1.75
2023-03-29T08:41:41.027Z,1.85
2023-03-29T08:45:21.666Z,1.83
2023-03-29T08:48:24.661Z,1.75
2023-03-29T08:51:28.567Z,1.90
2023-03-29T08:54:12.500Z,2.20
2023-03-29T08:57:25.631Z,2.00
2023-03-29T09:00:04.583Z,1.60
2023-03-29T09:02:36.073Z,2.10
2023-03-29T09:05:28.116Z,2.03
2023-03-29T09:08:18.830Z,1.63
2023-03-29T09:11:23.476Z,1.63
2023-03-29T09:14:25.075Z,1.70
2023-03-29T09:17:36.049Z,1.70
2023-03-29T09:20:57.020Z,1.80
2023-03-29T09:24:27.427Z,1.60
2023-03-29T09:27:23.274Z,1.70
2023-03-29T09:30:28.654Z,1.75
2023-03-29T10:07:46.296Z,1.88
2023-03-29T10:10:29.688Z,1.80
2023-03-29T10:13:07.435Z,1.60
2023-03-29T10:15:34.627Z,1.40
2023-03-29T10:18:10.960Z,1.50
2023-03-29T10:20:41.144Z,1.60
2023-03-29T10:23:19.175Z,1.55
2023-03-29T10:25:46.842Z,1.40
2023-03-29T10:28:18.573Z,1.40
2023-03-29T10:30:54.291Z,1.65
2023-03-29T10:33:25.066Z,1.10
2023-03-29T10:35:52.661Z,2.00
2023-03-29T10:38:25.425Z,1.25
2023-03-29T10:40:55.494Z,1.48
2023-03-29T10:43:29.769Z,1.10
2023-03-29T10:46:11.731Z,1.17
2023-03-29T10:48:46.327Z,1.25
2023-03-29T10:51:17.952Z,1.30
2023-03-29T10:53:46.679Z,1.25
2023-03-29T10:56:47.035Z,1.30
2023-03-29T10:59:28.967Z,1.40
2023-03-29T11:02:14.645Z,1.20
2023-03-29T11:05:42.769Z,1.42
2023-03-29T11:08:55.716Z,1.30
2023-03-29T11:12:16.075Z,1.40
2023-03-29T11:15:38.355Z,1.30
2023-03-29T11:19:00.555Z,1.20
2023-03-29T11:22:06.718Z,1.42
2023-03-29T11:25:14.818Z,1.63
2023-03-29T11:28:15.612Z,1.30
2023-03-29T11:31:09.212Z,1.38
2023-03-29T11:34:44.963Z,1.27
2023-03-29T11:38:11.997Z,1.50
2023-03-29T11:40:58.417Z,1.30
2023-03-29T11:43:46.140Z,1.70
2023-03-29T11:46:27.296Z,1.50
2023-03-29T11:49:06.240Z,1.20
2023-03-29T11:51:54.456Z,1.35
2023-03-29T11:54:52.935Z,1.52
2023-03-29T11:57:48.591Z,1.38
2023-03-29T12:00:38.596Z,1.13
2023-03-29T12:03:38.741Z,1.08
2023-03-29T12:06:58.878Z,1.27
2023-03-29T12:09:49.998Z,1.20
2023-03-29T12:12:46.491Z,1.08
2023-03-29T12:15:43.248Z,1.25
2023-03-29T12:18:51.733Z,1.10
2023-03-29T12:21:26.926Z,1.10
2023-03-29T12:23:55.419Z,1.48
2023-03-29T12:27:02.943Z,0.88
2023-03-29T12:30:42.740Z,0.90
2023-03-29T12:33:41.363Z,1.35
2023-03-29T12:36:56.313Z,0.88
2023-03-29T12:39:45.550Z,1.10
2023-03-29T12:42:32.891Z,0.75
2023-03-29T12:45:40.339Z,0.80
2023-03-29T12:48:27.286Z,1.27
2023-03-29T12:51:02.763Z,1.00
2023-03-29T12:53:40.416Z,0.80
2023-03-29T12:56:20.787Z,0.93
2023-03-29T12:58:59.980Z,1.10
2023-03-29T13:01:35.706Z,1.00
2023-03-29T13:04:23.490Z,1.20
2023-03-29T13:07:06.119Z,1.20
2023-03-29T13:10:09.505Z,0.80
2023-03-29T13:12:44.628Z,0.80
2023-03-29T13:15:14.927Z,0.93
2023-03-29T13:18:12.259Z,0.90
2023-03-29T13:20:59.115Z,0.77
2023-03-29T13:23:44.492Z,0.90
2023-03-29T13:26:52.135Z,0.88
2023-03-29T13:30:17.466Z,1.10
2023-03-29T13:33:21.478Z,1.00
2023-03-29T13:36:03.722Z,0.90
2023-03-29T13:38:32.138Z,1.02
2023-03-29T13:41:00.245Z,1.05
2023-03-29T13:43:44.629Z,1.20
2023-03-29T13:46:38.668Z,1.00
2023-03-29T13:49:29.562Z,0.93
2023-03-29T13:52:16.348Z,1.00
2023-03-29T13:55:29.334Z,0.85
2023-03-29T13:58:43.561Z,0.65
2023-03-29T14:01:29.241Z,1.13
2023-03-29T14:03:58.716Z,1.15
2023-03-29T14:06:36.708Z,0.95
2023-03-29T14:09:08.781Z,1.02
2023-03-29T14:11:37.156Z,1.17
2023-03-29T14:14:08.232Z,1.25
2023-03-29T14:16:40.259Z,1.33
2023-03-29T14:19:16.234Z,1.02
2023-03-29T14:22:21.380Z,1.10
2023-03-29T14:24:56.825Z,0.93
2023-03-29T14:27:24.407Z,0.90
2023-03-29T14:29:55.426Z,1.30
2023-03-29T14:32:33.524Z,1.00
2023-03-29T14:35:01.115Z,1.00
2023-03-29T14:37:31.077Z,1.33
2023-03-29T14:39:59.520Z,1.00
2023-03-29T14:42:29.098Z,1.08
2023-03-29T14:45:06.368Z,0.98
2023-03-29T14:47:34.782Z,1.00
2023-03-29T14:50:03.903Z,1.00
2023-03-29T14:52:32.407Z,1.00
2023-03-29T14:55:02.692Z,0.85
2023-03-29T14:57:36.797Z,1.00
2023-03-29T15:00:18.975Z,1.30
2023-03-29T15:03:02.720Z,1.20
2023-03-29T15:05:41.178Z,0.85
2023-03-29T15:08:38.486Z,1.40
2023-03-29T15:11:28.154Z,1.02
2023-03-29T15:14:09.002Z,0.95
2023-03-29T15:16:47.489Z,0.98
2023-03-29T15:19:22.547Z,0.93
2023-03-29T15:21:51.395Z,0.95
2023-03-29T15:24:28.775Z,1.30
2023-03-29T15:27:13.468Z,1.30
2023-03-29T15:29:46.378Z,1.30
2023-03-29T15:32:33.883Z,1.10
2023-03-29T15:35:05.938Z,1.10
2023-03-29T15:37:33.538Z,1.10
2023-03-29T15:40:07.834Z,1.20
2023-03-29T15:42:36.505Z,1.13
2023-03-29T15:45:06.391Z,1.50
2023-03-29T15:47:33.944Z,1.45
2023-03-29T15:50:03.648Z,1.30
2023-03-29T15:52:31.869Z,1.40
2023-03-29T15:54:59.116Z,1.65
2023-03-29T15:57:26.484Z,1.60
2023-03-29T15:59:53.900Z,1.25
2023-03-29T16:02:24.857Z,1.38
2023-03-29T16:05:18.333Z,1.30
2023-03-29T16:07:46.076Z,1.60
2023-03-29T16:10:13.437Z,1.38
2023-03-29T16:12:40.997Z,1.55
2023-03-29T16:15:18.690Z,1.33
2023-03-29T16:17:46.214Z,1.50
2023-03-29T16:20:19.925Z,1.30
2023-03-29T16:22:49.093Z,1.40
2023-03-29T16:25:22.846Z,1.77
2023-03-29T16:27:52.640Z,1.65
2023-03-29T16:30:20.552Z,1.30
2023-03-29T16:32:47.891Z,1.50
2023-03-29T16:35:32.290Z,1.40
2023-03-29T16:37:59.695Z,1.70
2023-03-29T16:40:27.887Z,1.67
2023-03-29T16:42:55.259Z,1.50
2023-03-29T16:45:23.137Z,1.50
2023-03-29T16:47:51.170Z,2.05
2023-03-29T16:50:20.230Z,1.73
2023-03-29T16:52:54.277Z,1.90
2023-03-29T16:55:21.595Z,1.80
2023-03-29T16:57:50.859Z,1.60
2023-03-29T17:00:20.220Z,1.55
2023-03-29T17:02:50.988Z,1.83
2023-03-29T17:05:19.204Z,1.60
2023-03-29T17:07:46.897Z,2.00
2023-03-29T17:10:14.899Z,1.63
2023-03-29T17:12:42.374Z,1.90
2023-03-29T17:15:10.441Z,3.13
2023-03-29T17:17:37.833Z,2.17
2023-03-29T17:20:12.396Z,2.20
2023-03-29T17:22:40.908Z,1.92
2023-03-29T17:25:09.343Z,1.88
2023-03-29T17:27:37.967Z,1.98
2023-03-29T17:30:08.084Z,2.70
2023-03-29T17:32:36.457Z,3.70
2023-03-29T17:35:04.734Z,2.13
2023-03-29T17:37:32.030Z,1.95
2023-03-29T17:39:59.206Z,2.50
2023-03-29T17:42:26.743Z,2.30
2023-03-29T17:44:54.492Z,2.58
2023-03-29T17:47:21.823Z,2.85
2023-03-29T17:49:51.122Z,2.45
2023-03-29T17:52:19.292Z,2.08
2023-03-29T17:54:46.541Z,2.92
2023-03-29T17:57:13.812Z,3.85
2023-03-29T17:59:41.186Z,3.13
2023-03-29T18:02:19.725Z,2.70
2023-03-29T18:04:47.654Z,2.28
2023-03-29T18:07:17.941Z,2.05
2023-03-29T18:09:45.351Z,2.25
2023-03-29T18:12:12.755Z,2.63
2023-03-29T18:14:40.056Z,2.80
2023-03-29T18:17:07.366Z,2.97
2023-03-29T18:19:35.128Z,2.72
2023-03-29T18:22:02.380Z,3.67
2023-03-29T18:24:49.225Z,2.70
2023-03-29T18:27:17.350Z,2.78
2023-03-29T18:29:44.856Z,2.90
2023-03-29T18:32:12.629Z,2.92
2023-03-29T18:34:39.903Z,2.85
2023-03-29T18:37:09.265Z,3.70
2023-03-29T18:39:36.554Z,4.75
2023-03-29T18:42:04.088Z,4.20
2023-03-29T18:44:31.555Z,3.28
2023-03-29T18:46:59.415Z,3.50
2023-03-29T18:49:27.014Z,3.25
2023-03-29T18:51:55.437Z,3.30
2023-03-29T18:54:22.606Z,3.50
2023-03-29T18:56:49.976Z,3.83
2023-03-29T18:59:17.542Z,4.10
2023-03-29T19:01:45.358Z,4.38
2023-03-29T19:04:13.429Z,3.35
2023-03-29T19:06:42.596Z,3.95
2023-03-29T19:09:10.042Z,4.03
2023-03-29T19:11:38.157Z,3.88
2023-03-29T19:14:09.126Z,4.50
2023-03-29T19:16:37.198Z,4.22
2023-03-29T19:19:06.705Z,4.35
2023-03-29T19:21:34.058Z,4.65
2023-03-29T19:24:04.927Z,4.45
2023-03-29T19:26:33.443Z,3.95
2023-03-29T19:29:01.254Z,4.15
2023-03-29T19:31:28.793Z,4.85
2023-03-29T19:33:56.143Z,4.90
2023-03-29T19:36:23.405Z,4.68
2023-03-29T19:38:51.572Z,5.65
2023-03-29T19:41:18.757Z,5.20
2023-03-29T19:43:46.419Z,5.07
2023-03-29T19:46:15.642Z,4.78
2023-03-29T19:48:45.221Z,5.07
2023-03-29T19:51:15.386Z,4.28
2023-03-29T19:53:42.708Z,3.90
2023-03-29T19:56:10.911Z,4.75
2023-03-29T19:58:38.354Z,4.53
2023-03-29T20:01:06.307Z,5.15
2023-03-29T20:03:36.302Z,5.50
2023-03-29T20:06:09.927Z,5.07
2023-03-29T20:08:38.894Z,4.72
2023-03-29T20:11:10.184Z,6.03
2023-03-29T20:13:41.605Z,6.00
2023-03-29T20:16:14.867Z,5.82
2023-03-29T20:18:46.849Z,5.82
2023-03-29T20:21:16.591Z,5.75
2023-03-29T20:23:44.772Z,5.38
2023-03-29T20:26:12.658Z,5.40
2023-03-29T20:28:40.497Z,5.90
2023-03-29T20:31:12.372Z,5.63
2023-03-29T20:33:41.372Z,5.32
2023-03-29T20:36:09.056Z,5.57
2023-03-29T20:38:36.959Z,5.97
2023-03-29T20:41:05.643Z,5.18
2023-03-29T20:43:37.456Z,5.30
2023-03-29T20:46:22.606Z,5.22
2023-03-29T20:48:53.737Z,5.13
2023-03-29T20:51:30.230Z,4.30
2023-03-29T20:54:07.706Z,4.22
2023-03-29T20:56:39.977Z,4.57
2023-03-29T20:59:11.010Z,4.40
2023-03-29T21:01:42.477Z,4.18
2023-03-29T21:04:10.857Z,5.15
2023-03-29T21:06:41.517Z,5.72
2023-03-29T21:09:09.001Z,5.57
2023-03-29T21:11:36.566Z,5.32
2023-03-29T21:14:04.315Z,6.28
2023-03-29T21:16:31.627Z,5.28
2023-03-29T21:19:04.122Z,5.47
2023-03-29T21:21:33.565Z,5.18
2023-03-29T21:24:01.057Z,5.18
2023-03-29T21:26:28.764Z,5.13
2023-03-29T21:28:56.303Z,4.93
2023-03-29T21:31:23.664Z,4.60
2023-03-29T21:33:52.964Z,4.50
2023-03-29T21:36:21.048Z,4.55
2023-03-29T21:38:48.313Z,5.00
2023-03-29T21:41:15.861Z,4.57
2023-03-29T21:43:42.988Z,4.85
2023-03-29T21:46:11.226Z,4.88
2023-03-29T21:48:38.584Z,4.70
2023-03-29T21:51:06.516Z,4.10
2023-03-29T21:53:34.720Z,4.85
2023-03-29T21:56:03.036Z,5.03
2023-03-29T21:58:30.709Z,4.60
2023-03-29T22:00:57.984Z,4.53
2023-03-29T22:03:25.615Z,4.88
2023-03-29T22:06:02.921Z,4.70
2023-03-29T22:08:31.236Z,4.18
2023-03-29T22:10:58.506Z,4.72
2023-03-29T22:13:28.851Z,4.20
2023-03-29T22:15:59.122Z,4.68
2023-03-29T22:18:30.188Z,4.80
2023-03-29T22:20:58.058Z,4.88
2023-03-29T22:23:25.249Z,4.75
2023-03-29T22:25:52.363Z,4.22
2023-03-29T22:28:19.557Z,4.70
2023-03-29T22:30:46.898Z,4.40
2023-03-29T22:33:14.290Z,4.65
2023-03-29T22:35:41.497Z,4.35
2023-03-29T22:38:08.627Z,4.75
2023-03-29T22:40:40.729Z,4.32
2023-03-29T22:43:08.103Z,4.50
2023-03-29T22:45:35.460Z,4.40
2023-03-29T22:48:02.713Z,3.88
2023-03-29T22:50:29.902Z,3.88
2023-03-29T22:52:57.307Z,3.78
2023-03-29T22:55:24.638Z,4.05
2023-03-29T22:57:51.976Z,4.47
2023-03-29T23:00:19.702Z,4.18
2023-03-29T23:02:52.421Z,4.13
2023-03-29T23:05:20.057Z,4.47
2023-03-29T23:07:47.546Z,3.88
2023-03-29T23:10:15.063Z,4.10
2023-03-29T23:12:42.892Z,3.97
2023-03-29T23:15:11.642Z,3.97
2023-03-29T23:17:38.760Z,5.63
2023-03-29T23:20:07.266Z,4.70
2023-03-29T23:22:36.200Z,4.20
2023-03-29T23:25:03.756Z,4.60
2023-03-29T23:27:30.933Z,4.50
2023-03-29T23:29:59.476Z,4.40
2023-03-29T23:32:26.875Z,4.35
2023-03-29T23:34:54.045Z,3.85
2023-03-29T23:37:21.457Z,4.75
2023-03-29T23:39:48.670Z,4.03
2023-03-29T23:42:16.323Z,4.10
2023-03-29T23:44:43.872Z,3.88
2023-03-29T23:47:11.000Z,3.88
2023-03-29T23:49:38.617Z,4.00
2023-03-29T23:52:05.953Z,3.83
2023-03-29T23:54:33.213Z,3.75
2023-03-29T23:57:00.728Z,3.92
2023-03-29T23:59:30.585Z,3.88
